sensor_id;sensor_type;location;lat;lon;timestamp;P1;durP1;ratioP1;P2;durP2;ratioP2
31734;SDS011;18313;48.518;9.124;2023-03-30T00:00:59;11.15;;;2.10;;
31734;SDS011;18313;48.518;9.124;2023-03-30T00:03:28;13.63;;;2.10;;
31734;SDS011;18313;48.518;9.124;2023-03-30T00:05:55;14.00;;;2.22;;
31734;SDS011;18313;48.518;9.124;2023-03-30T00:08:28;12.70;;;3.10;;
31734;SDS011;18313;48.518;9.124;2023-03-30T00:10:58;15.77;;;2.70;;
31734;SDS011;18313;48.518;9.124;2023-03-30T00:13:30;12.63;;;2.10;;
31734;SDS011;18313;48.518;9.124;2023-03-30T00:15:58;10.52;;;1.92;;
31734;SDS011;18313;48.518;9.124;2023-03-30T00:18:25;17.00;;;2.50;;
31734;SDS011;18313;48.518;9.124;2023-03-30T00:20:55;12.82;;;2.30;;
31734;SDS011;18313;48.518;9.124;2023-03-30T00:23:24;17.45;;;2.60;;
31734;SDS011;18313;48.518;9.124;2023-03-30T00:25:51;13.38;;;1.95;;
31734;SDS011;18313;48.518;9.124;2023-03-30T00:28:18;15.05;;;2.30;;
31734;SDS011;18313;48.518;9.124;2023-03-30T00:30:46;8.50;;;1.83;;
31734;SDS011;18313;48.518;9.124;2023-03-30T00:33:13;15.07;;;2.65;;
31734;SDS011;18313;48.518;9.124;2023-03-30T00:35:41;14.80;;;2.55;;
31734;SDS011;18313;48.518;9.124;2023-03-30T00:38:08;17.77;;;2.22;;
31734;SDS011;18313;48.518;9.124;2023-03-30T00:40:35;14.68;;;2.40;;
31734;SDS011;18313;48.518;9.124;2023-03-30T00:43:04;15.88;;;2.40;;
31734;SDS011;18313;48.518;9.124;2023-03-30T00:45:36;11.05;;;1.98;;
31734;SDS011;18313;48.518;9.124;2023-03-30T00:50:51;14.57;;;2.42;;
31734;SDS011;18313;48.518;9.124;2023-03-30T00:55:53;15.65;;;2.97;;
31734;SDS011;18313;48.518;9.124;2023-03-30T00:58:21;15.80;;;2.85;;
31734;SDS011;18313;48.518;9.124;2023-03-30T01:00:50;15.15;;;2.40;;
31734;SDS011;18313;48.518;9.124;2023-03-30T01:03:21;10.02;;;2.33;;
31734;SDS011;18313;48.518;9.124;2023-03-30T01:05:54;12.90;;;2.60;;
31734;SDS011;18313;48.518;9.124;2023-03-30T01:08:23;9.38;;;2.28;;
31734;SDS011;18313;48.518;9.124;2023-03-30T01:13:27;13.55;;;2.60;;
31734;SDS011;18313;48.518;9.124;2023-03-30T01:18:57;14.27;;;2.47;;
31734;SDS011;18313;48.518;9.124;2023-03-30T01:41:57;12.98;;;2.42;;
31734;SDS011;18313;48.518;9.124;2023-03-30T01:47:23;16.27;;;3.28;;
31734;SDS011;18313;48.518;9.124;2023-03-30T01:52:25;14.13;;;2.20;;
31734;SDS011;18313;48.518;9.124;2023-03-30T01:54:59;15.67;;;2.63;;
31734;SDS011;18313;48.518;9.124;2023-03-30T01:57:41;16.85;;;2.20;;
31734;SDS011;18313;48.518;9.124;2023-03-30T02:00:15;13.55;;;2.83;;
31734;SDS011;18313;48.518;9.124;2023-03-30T02:02:51;16.98;;;3.25;;
31734;SDS011;18313;48.518;9.124;2023-03-30T02:05:22;14.90;;;2.17;;
31734;SDS011;18313;48.518;9.124;2023-03-30T02:07:53;15.10;;;2.22;;
31734;SDS011;18313;48.518;9.124;2023-03-30T02:10:23;13.32;;;2.45;;
31734;SDS011;18313;48.518;9.124;2023-03-30T02:12:54;14.98;;;2.10;;
31734;SDS011;18313;48.518;9.124;2023-03-30T02:15:24;12.00;;;2.53;;
31734;SDS011;18313;48.518;9.124;2023-03-30T02:17:55;12.23;;;2.42;;
31734;SDS011;18313;48.518;9.124;2023-03-30T02:20:23;14.02;;;2.55;;
31734;SDS011;18313;48.518;9.124;2023-03-30T02:22:50;12.68;;;2.83;;
31734;SDS011;18313;48.518;9.124;2023-03-30T02:25:17;12.85;;;2.42;;
31734;SDS011;18313;48.518;9.124;2023-03-30T02:27:44;15.95;;;2.70;;
31734;SDS011;18313;48.518;9.124;2023-03-30T02:30:13;20.77;;;2.53;;
31734;SDS011;18313;48.518;9.124;2023-03-30T02:32:45;14.27;;;3.40;;
31734;SDS011;18313;48.518;9.124;2023-03-30T02:57:34;15.07;;;3.00;;
31734;SDS011;18313;48.518;9.124;2023-03-30T03:00:16;17.00;;;3.35;;
31734;SDS011;18313;48.518;9.124;2023-03-30T03:05:19;13.77;;;2.30;;
31734;SDS011;18313;48.518;9.124;2023-03-30T03:07:47;14.73;;;2.67;;
31734;SDS011;18313;48.518;9.124;2023-03-30T03:10:15;12.88;;;3.10;;
31734;SDS011;18313;48.518;9.124;2023-03-30T03:12:42;16.42;;;2.97;;
31734;SDS011;18313;48.518;9.124;2023-03-30T03:15:13;15.82;;;2.85;;
31734;SDS011;18313;48.518;9.124;2023-03-30T03:17:41;16.92;;;2.85;;
31734;SDS011;18313;48.518;9.124;2023-03-30T03:20:10;16.25;;;2.80;;
31734;SDS011;18313;48.518;9.124;2023-03-30T03:22:38;15.50;;;2.70;;
31734;SDS011;18313;48.518;9.124;2023-03-30T03:25:05;13.23;;;2.30;;
31734;SDS011;18313;48.518;9.124;2023-03-30T03:27:32;17.70;;;3.67;;
31734;SDS011;18313;48.518;9.124;2023-03-30T03:30:00;18.23;;;3.25;;
31734;SDS011;18313;48.518;9.124;2023-03-30T03:32:28;16.42;;;3.10;;
31734;SDS011;18313;48.518;9.124;2023-03-30T03:34:55;12.23;;;2.33;;
31734;SDS011;18313;48.518;9.124;2023-03-30T03:37:22;19.85;;;3.03;;
31734;SDS011;18313;48.518;9.124;2023-03-30T03:39:49;11.40;;;2.30;;
31734;SDS011;18313;48.518;9.124;2023-03-30T03:42:16;16.73;;;3.47;;
31734;SDS011;18313;48.518;9.124;2023-03-30T03:44:43;13.70;;;3.25;;
31734;SDS011;18313;48.518;9.124;2023-03-30T03:47:10;17.63;;;3.03;;
31734;SDS011;18313;48.518;9.124;2023-03-30T03:49:41;15.73;;;2.95;;
31734;SDS011;18313;48.518;9.124;2023-03-30T03:52:09;13.00;;;3.08;;
31734;SDS011;18313;48.518;9.124;2023-03-30T03:54:36;15.15;;;2.78;;
31734;SDS011;18313;48.518;9.124;2023-03-30T03:57:03;16.40;;;3.08;;
31734;SDS011;18313;48.518;9.124;2023-03-30T03:59:31;19.50;;;3.55;;
31734;SDS011;18313;48.518;9.124;2023-03-30T04:01:59;19.60;;;3.40;;
31734;SDS011;18313;48.518;9.124;2023-03-30T04:04:26;14.82;;;3.28;;
31734;SDS011;18313;48.518;9.124;2023-03-30T04:06:53;12.48;;;2.70;;
31734;SDS011;18313;48.518;9.124;2023-03-30T04:09:21;21.35;;;3.58;;
31734;SDS011;18313;48.518;9.124;2023-03-30T04:11:50;17.67;;;3.30;;
31734;SDS011;18313;48.518;9.124;2023-03-30T04:14:17;16.83;;;3.63;;
31734;SDS011;18313;48.518;9.124;2023-03-30T04:16:44;17.73;;;3.08;;
31734;SDS011;18313;48.518;9.124;2023-03-30T04:19:11;13.88;;;3.03;;
31734;SDS011;18313;48.518;9.124;2023-03-30T04:21:38;16.05;;;3.08;;
31734;SDS011;18313;48.518;9.124;2023-03-30T04:24:06;11.93;;;3.13;;
31734;SDS011;18313;48.518;9.124;2023-03-30T04:26:38;12.70;;;3.35;;
31734;SDS011;18313;48.518;9.124;2023-03-30T04:29:07;19.10;;;4.80;;
31734;SDS011;18313;48.518;9.124;2023-03-30T04:31:34;15.93;;;3.95;;
31734;SDS011;18313;48.518;9.124;2023-03-30T04:34:03;12.50;;;3.40;;
31734;SDS011;18313;48.518;9.124;2023-03-30T04:36:30;8.20;;;2.03;;
31734;SDS011;18313;48.518;9.124;2023-03-30T04:38:57;11.55;;;2.72;;
31734;SDS011;18313;48.518;9.124;2023-03-30T04:41:27;16.85;;;3.70;;
31734;SDS011;18313;48.518;9.124;2023-03-30T04:44:02;11.90;;;3.15;;
31734;SDS011;18313;48.518;9.124;2023-03-30T04:46:31;15.60;;;3.45;;
31734;SDS011;18313;48.518;9.124;2023-03-30T04:48:59;13.48;;;4.57;;
31734;SDS011;18313;48.518;9.124;2023-03-30T04:51:27;18.40;;;4.20;;
31734;SDS011;18313;48.518;9.124;2023-03-30T04:53:54;19.60;;;5.03;;
31734;SDS011;18313;48.518;9.124;2023-03-30T04:56:22;15.57;;;3.67;;
31734;SDS011;18313;48.518;9.124;2023-03-30T04:58:49;16.52;;;3.60;;
31734;SDS011;18313;48.518;9.124;2023-03-30T05:01:16;15.63;;;3.80;;
31734;SDS011;18313;48.518;9.124;2023-03-30T05:03:43;15.05;;;3.10;;
31734;SDS011;18313;48.518;9.124;2023-03-30T05:06:10;13.98;;;3.45;;
31734;SDS011;18313;48.518;9.124;2023-03-30T05:08:38;14.40;;;3.30;;
31734;SDS011;18313;48.518;9.124;2023-03-30T05:11:07;16.88;;;2.80;;
31734;SDS011;18313;48.518;9.124;2023-03-30T05:13:34;18.88;;;3.28;;
31734;SDS011;18313;48.518;9.124;2023-03-30T05:16:01;20.10;;;3.47;;
31734;SDS011;18313;48.518;9.124;2023-03-30T05:18:28;18.23;;;4.07;;
31734;SDS011;18313;48.518;9.124;2023-03-30T05:20:56;17.17;;;3.67;;
31734;SDS011;18313;48.518;9.124;2023-03-30T05:23:24;16.58;;;3.00;;
31734;SDS011;18313;48.518;9.124;2023-03-30T05:25:51;19.05;;;4.10;;
31734;SDS011;18313;48.518;9.124;2023-03-30T05:28:20;43.28;;;17.55;;
31734;SDS011;18313;48.518;9.124;2023-03-30T05:30:52;32.17;;;10.75;;
31734;SDS011;18313;48.518;9.124;2023-03-30T05:33:20;34.83;;;13.07;;
31734;SDS011;18313;48.518;9.124;2023-03-30T05:35:48;29.70;;;11.25;;
31734;SDS011;18313;48.518;9.124;2023-03-30T05:38:15;33.88;;;10.60;;
31734;SDS011;18313;48.518;9.124;2023-03-30T05:40:43;19.38;;;6.05;;
31734;SDS011;18313;48.518;9.124;2023-03-30T05:43:10;17.20;;;4.60;;
31734;SDS011;18313;48.518;9.124;2023-03-30T05:45:38;16.45;;;5.07;;
31734;SDS011;18313;48.518;9.124;2023-03-30T05:48:05;22.58;;;7.03;;
31734;SDS011;18313;48.518;9.124;2023-03-30T05:50:32;25.92;;;6.93;;
31734;SDS011;18313;48.518;9.124;2023-03-30T05:52:59;17.85;;;4.45;;
31734;SDS011;18313;48.518;9.124;2023-03-30T05:55:27;20.08;;;3.95;;
31734;SDS011;18313;48.518;9.124;2023-03-30T05:57:54;16.08;;;4.18;;
31734;SDS011;18313;48.518;9.124;2023-03-30T06:00:22;17.13;;;4.00;;
31734;SDS011;18313;48.518;9.124;2023-03-30T06:02:49;16.40;;;4.30;;
31734;SDS011;18313;48.518;9.124;2023-03-30T06:05:17;14.80;;;3.60;;
31734;SDS011;18313;48.518;9.124;2023-03-30T06:07:44;14.80;;;3.28;;
31734;SDS011;18313;48.518;9.124;2023-03-30T06:10:11;19.35;;;4.18;;
31734;SDS011;18313;48.518;9.124;2023-03-30T06:12:38;13.95;;;3.20;;
31734;SDS011;18313;48.518;9.124;2023-03-30T06:15:06;18.02;;;3.58;;
31734;SDS011;18313;48.518;9.124;2023-03-30T06:17:35;18.05;;;3.30;;
31734;SDS011;18313;48.518;9.124;2023-03-30T06:20:03;15.18;;;3.22;;
31734;SDS011;18313;48.518;9.124;2023-03-30T06:22:37;15.98;;;4.47;;
31734;SDS011;18313;48.518;9.124;2023-03-30T06:25:07;14.43;;;3.38;;
31734;SDS011;18313;48.518;9.124;2023-03-30T06:27:34;21.13;;;3.20;;
31734;SDS011;18313;48.518;9.124;2023-03-30T06:30:02;17.25;;;3.50;;
31734;SDS011;18313;48.518;9.124;2023-03-30T06:32:30;19.33;;;3.15;;
31734;SDS011;18313;48.518;9.124;2023-03-30T06:34:57;19.80;;;3.97;;
31734;SDS011;18313;48.518;9.124;2023-03-30T06:37:24;24.10;;;4.95;;
31734;SDS011;18313;48.518;9.124;2023-03-30T06:39:51;12.73;;;2.97;;
31734;SDS011;18313;48.518;9.124;2023-03-30T06:42:18;13.32;;;3.50;;
31734;SDS011;18313;48.518;9.124;2023-03-30T06:44:46;13.88;;;4.00;;
31734;SDS011;18313;48.518;9.124;2023-03-30T06:47:15;14.88;;;3.38;;
31734;SDS011;18313;48.518;9.124;2023-03-30T06:49:42;18.00;;;3.70;;
31734;SDS011;18313;48.518;9.124;2023-03-30T06:52:09;18.10;;;4.25;;
31734;SDS011;18313;48.518;9.124;2023-03-30T06:54:36;17.30;;;3.88;;
31734;SDS011;18313;48.518;9.124;2023-03-30T06:57:03;19.30;;;3.70;;
31734;SDS011;18313;48.518;9.124;2023-03-30T06:59:31;10.55;;;3.25;;
31734;SDS011;18313;48.518;9.124;2023-03-30T07:02:00;16.50;;;3.65;;
31734;SDS011;18313;48.518;9.124;2023-03-30T07:04:29;16.63;;;3.28;;
31734;SDS011;18313;48.518;9.124;2023-03-30T07:06:56;19.88;;;2.88;;
31734;SDS011;18313;48.518;9.124;2023-03-30T07:09:23;15.15;;;3.03;;
31734;SDS011;18313;48.518;9.124;2023-03-30T07:11:51;19.23;;;3.33;;
31734;SDS011;18313;48.518;9.124;2023-03-30T07:14:21;14.68;;;3.22;;
31734;SDS011;18313;48.518;9.124;2023-03-30T07:16:48;16.38;;;2.97;;
31734;SDS011;18313;48.518;9.124;2023-03-30T07:19:16;17.02;;;3.58;;
31734;SDS011;18313;48.518;9.124;2023-03-30T07:21:43;12.00;;;3.03;;
31734;SDS011;18313;48.518;9.124;2023-03-30T07:24:10;15.43;;;3.30;;
31734;SDS011;18313;48.518;9.124;2023-03-30T07:26:38;20.98;;;3.13;;
31734;SDS011;18313;48.518;9.124;2023-03-30T07:29:05;19.10;;;4.47;;
31734;SDS011;18313;48.518;9.124;2023-03-30T07:31:32;17.88;;;3.63;;
31734;SDS011;18313;48.518;9.124;2023-03-30T07:33:59;15.35;;;3.05;;
31734;SDS011;18313;48.518;9.124;2023-03-30T07:36:28;15.73;;;3.15;;
31734;SDS011;18313;48.518;9.124;2023-03-30T07:38:55;12.48;;;2.92;;
31734;SDS011;18313;48.518;9.124;2023-03-30T07:41:23;12.32;;;3.40;;
31734;SDS011;18313;48.518;9.124;2023-03-30T07:43:51;14.70;;;3.33;;
31734;SDS011;18313;48.518;9.124;2023-03-30T07:46:18;14.60;;;3.08;;
31734;SDS011;18313;48.518;9.124;2023-03-30T07:48:45;13.82;;;3.00;;
31734;SDS011;18313;48.518;9.124;2023-03-30T07:51:12;15.80;;;3.75;;
31734;SDS011;18313;48.518;9.124;2023-03-30T07:53:39;16.73;;;3.10;;
31734;SDS011;18313;48.518;9.124;2023-03-30T07:56:07;12.98;;;3.17;;
31734;SDS011;18313;48.518;9.124;2023-03-30T07:58:35;13.82;;;3.10;;
31734;SDS011;18313;48.518;9.124;2023-03-30T08:01:02;16.95;;;3.67;;
31734;SDS011;18313;48.518;9.124;2023-03-30T08:03:31;13.40;;;2.40;;
31734;SDS011;18313;48.518;9.124;2023-03-30T08:05:59;13.93;;;3.55;;
31734;SDS011;18313;48.518;9.124;2023-03-30T08:08:32;12.18;;;2.65;;
31734;SDS011;18313;48.518;9.124;2023-03-30T08:11:00;12.98;;;3.08;;
31734;SDS011;18313;48.518;9.124;2023-03-30T08:13:27;11.60;;;2.90;;
31734;SDS011;18313;48.518;9.124;2023-03-30T08:15:54;15.13;;;3.20;;
31734;SDS011;18313;48.518;9.124;2023-03-30T08:18:21;13.32;;;2.95;;
31734;SDS011;18313;48.518;9.124;2023-03-30T08:20:52;17.80;;;3.92;;
31734;SDS011;18313;48.518;9.124;2023-03-30T08:23:19;14.95;;;3.03;;
31734;SDS011;18313;48.518;9.124;2023-03-30T08:25:47;18.88;;;4.13;;
31734;SDS011;18313;48.518;9.124;2023-03-30T08:28:18;16.73;;;2.92;;
31734;SDS011;18313;48.518;9.124;2023-03-30T08:30:47;13.60;;;2.92;;
31734;SDS011;18313;48.518;9.124;2023-03-30T08:33:14;14.43;;;2.72;;
31734;SDS011;18313;48.518;9.124;2023-03-30T08:35:47;16.42;;;3.15;;
31734;SDS011;18313;48.518;9.124;2023-03-30T08:38:15;13.93;;;2.93;;
31734;SDS011;18313;48.518;9.124;2023-03-30T08:40:46;14.35;;;3.03;;
31734;SDS011;18313;48.518;9.124;2023-03-30T08:45:59;9.07;;;2.30;;
31734;SDS011;18313;48.518;9.124;2023-03-30T08:48:28;11.23;;;2.67;;
31734;SDS011;18313;48.518;9.124;2023-03-30T08:51:21;19.30;;;3.88;;
31734;SDS011;18313;48.518;9.124;2023-03-30T08:54:03;11.82;;;3.05;;
31734;SDS011;18313;48.518;9.124;2023-03-30T08:56:39;14.93;;;2.97;;
31734;SDS011;18313;48.518;9.124;2023-03-30T09:01:57;15.27;;;3.40;;
31734;SDS011;18313;48.518;9.124;2023-03-30T09:07:51;10.68;;;2.70;;
31734;SDS011;18313;48.518;9.124;2023-03-30T09:10:01;9.82;;;3.05;;
31734;SDS011;18313;48.518;9.124;2023-03-30T09:12:45;9.15;;;2.50;;
31734;SDS011;18313;48.518;9.124;2023-03-30T09:15:18;7.82;;;2.03;;
31734;SDS011;18313;48.518;9.124;2023-03-30T09:20:57;9.50;;;2.03;;
31734;SDS011;18313;48.518;9.124;2023-03-30T09:23:26;8.15;;;2.03;;
31734;SDS011;18313;48.518;9.124;2023-03-30T09:34:03;9.40;;;2.28;;
31734;SDS011;18313;48.518;9.124;2023-03-30T09:39:29;8.00;;;1.83;;
31734;SDS011;18313;48.518;9.124;2023-03-30T09:42:13;4.03;;;1.75;;
31734;SDS011;18313;48.518;9.124;2023-03-30T09:47:26;7.82;;;1.85;;
31734;SDS011;18313;48.518;9.124;2023-03-30T09:49:59;9.93;;;2.60;;
31734;SDS011;18313;48.518;9.124;2023-03-30T09:52:32;6.82;;;2.00;;
31734;SDS011;18313;48.518;9.124;2023-03-30T09:55:22;6.57;;;1.80;;
31734;SDS011;18313;48.518;9.124;2023-03-30T09:58:08;5.82;;;2.10;;
31734;SDS011;18313;48.518;9.124;2023-03-30T10:00:36;8.68;;;2.00;;
31734;SDS011;18313;48.518;9.124;2023-03-30T10:03:05;9.75;;;2.53;;
31734;SDS011;18313;48.518;9.124;2023-03-30T10:05:34;11.13;;;2.65;;
31734;SDS011;18313;48.518;9.124;2023-03-30T10:08:04;8.88;;;2.45;;
31734;SDS011;18313;48.518;9.124;2023-03-30T10:10:44;7.07;;;2.00;;
31734;SDS011;18313;48.518;9.124;2023-03-30T10:13:18;12.95;;;3.05;;
31734;SDS011;18313;48.518;9.124;2023-03-30T10:15:52;11.48;;;2.55;;
31734;SDS011;18313;48.518;9.124;2023-03-30T10:18:21;12.50;;;2.67;;
31734;SDS011;18313;48.518;9.124;2023-03-30T10:21:05;10.40;;;2.30;;
31734;SDS011;18313;48.518;9.124;2023-03-30T10:23:41;10.15;;;2.67;;
31734;SDS011;18313;48.518;9.124;2023-03-30T10:26:11;9.70;;;2.40;;
31734;SDS011;18313;48.518;9.124;2023-03-30T10:28:51;10.43;;;2.78;;
31734;SDS011;18313;48.518;9.124;2023-03-30T10:31:20;11.23;;;2.80;;
31734;SDS011;18313;48.518;9.124;2023-03-30T10:33:56;8.93;;;2.58;;
31734;SDS011;18313;48.518;9.124;2023-03-30T10:36:29;5.32;;;2.42;;
31734;SDS011;18313;48.518;9.124;2023-03-30T10:39:04;8.90;;;2.28;;
31734;SDS011;18313;48.518;9.124;2023-03-30T10:41:37;8.00;;;2.15;;
31734;SDS011;18313;48.518;9.124;2023-03-30T10:49:53;9.63;;;2.50;;
31734;SDS011;18313;48.518;9.124;2023-03-30T10:52:32;9.38;;;2.60;;
31734;SDS011;18313;48.518;9.124;2023-03-30T11:00:40;12.18;;;2.35;;
31734;SDS011;18313;48.518;9.124;2023-03-30T11:03:30;8.63;;;3.30;;
31734;SDS011;18313;48.518;9.124;2023-03-30T11:06:02;9.35;;;2.50;;
31734;SDS011;18313;48.518;9.124;2023-03-30T11:08:36;11.95;;;3.47;;
31734;SDS011;18313;48.518;9.124;2023-03-30T11:11:08;11.02;;;2.90;;
31734;SDS011;18313;48.518;9.124;2023-03-30T11:13:43;7.80;;;3.03;;
31734;SDS011;18313;48.518;9.124;2023-03-30T11:19:21;8.98;;;2.78;;
31734;SDS011;18313;48.518;9.124;2023-03-30T11:22:03;10.07;;;3.10;;
31734;SDS011;18313;48.518;9.124;2023-03-30T11:24:34;8.88;;;2.83;;
31734;SDS011;18313;48.518;9.124;2023-03-30T11:30:08;11.38;;;3.05;;
31734;SDS011;18313;48.518;9.124;2023-03-30T11:32:42;9.35;;;3.17;;
31734;SDS011;18313;48.518;9.124;2023-03-30T11:35:47;12.15;;;3.20;;
31734;SDS011;18313;48.518;9.124;2023-03-30T11:38:32;9.80;;;2.90;;
31734;SDS011;18313;48.518;9.124;2023-03-30T11:41:10;9.82;;;2.50;;
31734;SDS011;18313;48.518;9.124;2023-03-30T11:43:38;9.93;;;3.08;;
31734;SDS011;18313;48.518;9.124;2023-03-30T11:46:06;8.20;;;2.90;;
31734;SDS011;18313;48.518;9.124;2023-03-30T11:48:53;13.07;;;2.92;;
31734;SDS011;18313;48.518;9.124;2023-03-30T12:05:27;9.88;;;2.50;;
31734;SDS011;18313;48.518;9.124;2023-03-30T12:11:16;9.35;;;2.60;;
31734;SDS011;18313;48.518;9.124;2023-03-30T12:13:54;7.90;;;2.63;;
31734;SDS011;18313;48.518;9.124;2023-03-30T12:16:44;8.30;;;2.78;;
31734;SDS011;18313;48.518;9.124;2023-03-30T12:19:17;8.07;;;2.80;;
31734;SDS011;18313;48.518;9.124;2023-03-30T12:24:32;7.45;;;2.25;;
31734;SDS011;18313;48.518;9.124;2023-03-30T12:27:08;6.70;;;2.67;;
31734;SDS011;18313;48.518;9.124;2023-03-30T12:29:47;5.90;;;2.35;;
31734;SDS011;18313;48.518;9.124;2023-03-30T12:32:26;7.30;;;2.38;;
31734;SDS011;18313;48.518;9.124;2023-03-30T12:34:57;7.13;;;2.42;;
31734;SDS011;18313;48.518;9.124;2023-03-30T12:37:31;9.45;;;2.47;;
31734;SDS011;18313;48.518;9.124;2023-03-30T12:40:13;7.88;;;2.10;;
31734;SDS011;18313;48.518;9.124;2023-03-30T12:42:49;9.18;;;2.10;;
31734;SDS011;18313;48.518;9.124;2023-03-30T12:45:32;7.72;;;2.63;;
31734;SDS011;18313;48.518;9.124;2023-03-30T12:51:10;7.65;;;2.40;;
31734;SDS011;18313;48.518;9.124;2023-03-30T13:05:25;8.00;;;2.28;;
31734;SDS011;18313;48.518;9.124;2023-03-30T13:08:01;7.63;;;2.22;;
31734;SDS011;18313;48.518;9.124;2023-03-30T13:10:41;10.55;;;2.55;;
31734;SDS011;18313;48.518;9.124;2023-03-30T13:16:12;7.82;;;2.33;;
31734;SDS011;18313;48.518;9.124;2023-03-30T13:18:50;9.75;;;2.00;;
31734;SDS011;18313;48.518;9.124;2023-03-30T13:21:21;7.95;;;2.08;;
31734;SDS011;18313;48.518;9.124;2023-03-30T13:23:57;7.55;;;2.30;;
31734;SDS011;18313;48.518;9.124;2023-03-30T13:26:28;5.68;;;1.85;;
31734;SDS011;18313;48.518;9.124;2023-03-30T13:29:07;7.30;;;1.95;;
31734;SDS011;18313;48.518;9.124;2023-03-30T13:31:41;8.93;;;2.13;;
31734;SDS011;18313;48.518;9.124;2023-03-30T13:37:39;7.07;;;2.17;;
31734;SDS011;18313;48.518;9.124;2023-03-30T13:40:19;7.15;;;1.73;;
31734;SDS011;18313;48.518;9.124;2023-03-30T13:46:16;3.78;;;1.45;;
31734;SDS011;18313;48.518;9.124;2023-03-30T13:49:17;3.40;;;1.20;;
31734;SDS011;18313;48.518;9.124;2023-03-30T13:52:11;4.78;;;1.42;;
31734;SDS011;18313;48.518;9.124;2023-03-30T13:54:41;4.80;;;1.65;;
31734;SDS011;18313;48.518;9.124;2023-03-30T13:57:10;5.50;;;1.67;;
31734;SDS011;18313;48.518;9.124;2023-03-30T14:00:28;6.50;;;1.35;;
31734;SDS011;18313;48.518;9.124;2023-03-30T14:06:05;5.43;;;1.30;;
31734;SDS011;18313;48.518;9.124;2023-03-30T14:08:41;7.28;;;1.50;;
31734;SDS011;18313;48.518;9.124;2023-03-30T14:11:12;5.07;;;1.27;;
31734;SDS011;18313;48.518;9.124;2023-03-30T14:13:42;9.50;;;1.52;;
31734;SDS011;18313;48.518;9.124;2023-03-30T14:16:22;4.38;;;1.63;;
31734;SDS011;18313;48.518;9.124;2023-03-30T14:21:48;9.00;;;1.92;;
31734;SDS011;18313;48.518;9.124;2023-03-30T14:24:26;5.72;;;1.52;;
31734;SDS011;18313;48.518;9.124;2023-03-30T14:29:31;7.55;;;1.70;;
31734;SDS011;18313;48.518;9.124;2023-03-30T14:31:59;6.70;;;1.55;;
31734;SDS011;18313;48.518;9.124;2023-03-30T14:34:31;4.35;;;1.55;;
31734;SDS011;18313;48.518;9.124;2023-03-30T14:37:02;7.07;;;2.25;;
31734;SDS011;18313;48.518;9.124;2023-03-30T14:39:32;5.32;;;1.50;;
31734;SDS011;18313;48.518;9.124;2023-03-30T14:42:47;3.67;;;1.30;;
31734;SDS011;18313;48.518;9.124;2023-03-30T14:44:59;4.38;;;1.30;;
31734;SDS011;18313;48.518;9.124;2023-03-30T14:47:26;2.78;;;1.15;;
31734;SDS011;18313;48.518;9.124;2023-03-30T14:49:57;3.45;;;1.23;;
31734;SDS011;18313;48.518;9.124;2023-03-30T14:55:03;5.57;;;1.25;;
31734;SDS011;18313;48.518;9.124;2023-03-30T14:57:36;4.43;;;1.10;;
31734;SDS011;18313;48.518;9.124;2023-03-30T15:00:07;6.07;;;1.23;;
31734;SDS011;18313;48.518;9.124;2023-03-30T15:02:57;3.60;;;1.20;;
31734;SDS011;18313;48.518;9.124;2023-03-30T15:05:28;3.38;;;1.30;;
31734;SDS011;18313;48.518;9.124;2023-03-30T15:08:00;3.78;;;1.00;;
31734;SDS011;18313;48.518;9.124;2023-03-30T15:10:34;6.07;;;1.88;;
31734;SDS011;18313;48.518;9.124;2023-03-30T15:13:09;3.90;;;1.20;;
31734;SDS011;18313;48.518;9.124;2023-03-30T15:15:49;5.90;;;1.23;;
31734;SDS011;18313;48.518;9.124;2023-03-30T15:18:19;5.03;;;1.00;;
31734;SDS011;18313;48.518;9.124;2023-03-30T15:20:50;6.15;;;1.15;;
31734;SDS011;18313;48.518;9.124;2023-03-30T15:23:18;4.20;;;1.02;;
31734;SDS011;18313;48.518;9.124;2023-03-30T15:25:46;6.13;;;1.20;;
31734;SDS011;18313;48.518;9.124;2023-03-30T15:28:15;3.60;;;1.05;;
31734;SDS011;18313;48.518;9.124;2023-03-30T15:30:49;4.40;;;1.10;;
31734;SDS011;18313;48.518;9.124;2023-03-30T15:33:28;4.20;;;1.00;;
31734;SDS011;18313;48.518;9.124;2023-03-30T15:36:09;3.33;;;1.13;;
31734;SDS011;18313;48.518;9.124;2023-03-30T15:38:48;2.65;;;0.90;;
31734;SDS011;18313;48.518;9.124;2023-03-30T15:41:21;1.83;;;0.73;;
31734;SDS011;18313;48.518;9.124;2023-03-30T15:44:09;4.50;;;1.42;;
31734;SDS011;18313;48.518;9.124;2023-03-30T15:46:38;4.63;;;0.82;;
31734;SDS011;18313;48.518;9.124;2023-03-30T15:49:08;4.45;;;1.17;;
31734;SDS011;18313;48.518;9.124;2023-03-30T15:51:49;4.22;;;0.68;;
31734;SDS011;18313;48.518;9.124;2023-03-30T15:54:22;4.97;;;0.82;;
31734;SDS011;18313;48.518;9.124;2023-03-30T15:59:29;5.30;;;1.08;;
31734;SDS011;18313;48.518;9.124;2023-03-30T16:02:03;3.45;;;1.27;;
31734;SDS011;18313;48.518;9.124;2023-03-30T16:04:41;3.75;;;0.90;;
31734;SDS011;18313;48.518;9.124;2023-03-30T16:07:13;3.55;;;0.88;;
31734;SDS011;18313;48.518;9.124;2023-03-30T16:09:48;2.00;;;0.63;;
31734;SDS011;18313;48.518;9.124;2023-03-30T16:12:18;1.65;;;0.70;;
31734;SDS011;18313;48.518;9.124;2023-03-30T16:14:51;4.20;;;1.02;;
31734;SDS011;18313;48.518;9.124;2023-03-30T16:17:19;5.15;;;0.90;;
31734;SDS011;18313;48.518;9.124;2023-03-30T16:19:46;4.70;;;0.98;;
31734;SDS011;18313;48.518;9.124;2023-03-30T16:22:14;4.68;;;1.25;;
31734;SDS011;18313;48.518;9.124;2023-03-30T16:24:41;3.30;;;0.93;;
31734;SDS011;18313;48.518;9.124;2023-03-30T16:27:09;3.63;;;0.90;;
31734;SDS011;18313;48.518;9.124;2023-03-30T16:29:38;4.28;;;1.00;;
31734;SDS011;18313;48.518;9.124;2023-03-30T16:32:05;5.05;;;0.98;;
31734;SDS011;18313;48.518;9.124;2023-03-30T16:34:32;6.25;;;1.00;;
31734;SDS011;18313;48.518;9.124;2023-03-30T16:36:59;4.47;;;1.40;;
31734;SDS011;18313;48.518;9.124;2023-03-30T16:39:27;4.22;;;0.98;;
31734;SDS011;18313;48.518;9.124;2023-03-30T16:41:55;2.63;;;0.90;;
31734;SDS011;18313;48.518;9.124;2023-03-30T16:44:23;3.40;;;0.75;;
31734;SDS011;18313;48.518;9.124;2023-03-30T16:46:50;1.80;;;0.77;;
31734;SDS011;18313;48.518;9.124;2023-03-30T16:49:19;2.90;;;0.98;;
31734;SDS011;18313;48.518;9.124;2023-03-30T16:51:48;3.47;;;0.80;;
31734;SDS011;18313;48.518;9.124;2023-03-30T16:54:17;2.28;;;0.77;;
31734;SDS011;18313;48.518;9.124;2023-03-30T16:56:57;3.05;;;0.77;;
31734;SDS011;18313;48.518;9.124;2023-03-30T16:59:26;5.35;;;1.10;;
31734;SDS011;18313;48.518;9.124;2023-03-30T17:01:56;5.40;;;1.13;;
31734;SDS011;18313;48.518;9.124;2023-03-30T17:04:23;3.25;;;1.08;;
31734;SDS011;18313;48.518;9.124;2023-03-30T17:06:51;3.65;;;1.13;;
31734;SDS011;18313;48.518;9.124;2023-03-30T17:09:21;3.90;;;0.90;;
31734;SDS011;18313;48.518;9.124;2023-03-30T17:11:48;7.50;;;1.20;;
31734;SDS011;18313;48.518;9.124;2023-03-30T17:14:16;3.15;;;0.90;;
31734;SDS011;18313;48.518;9.124;2023-03-30T17:16:43;3.85;;;1.10;;
31734;SDS011;18313;48.518;9.124;2023-03-30T17:19:11;5.25;;;0.93;;
31734;SDS011;18313;48.518;9.124;2023-03-30T17:21:39;3.22;;;0.90;;
31734;SDS011;18313;48.518;9.124;2023-03-30T17:24:08;4.95;;;1.10;;
31734;SDS011;18313;48.518;9.124;2023-03-30T17:26:36;2.58;;;1.05;;
31734;SDS011;18313;48.518;9.124;2023-03-30T17:29:04;5.45;;;1.30;;
31734;SDS011;18313;48.518;9.124;2023-03-30T17:31:31;3.92;;;1.40;;
31734;SDS011;18313;48.518;9.124;2023-03-30T17:33:59;4.35;;;1.20;;
31734;SDS011;18313;48.518;9.124;2023-03-30T17:36:26;4.70;;;1.90;;
31734;SDS011;18313;48.518;9.124;2023-03-30T17:38:54;5.25;;;1.45;;
31734;SDS011;18313;48.518;9.124;2023-03-30T17:41:24;6.68;;;3.03;;
31734;SDS011;18313;48.518;9.124;2023-03-30T17:43:52;3.13;;;1.40;;
31734;SDS011;18313;48.518;9.124;2023-03-30T17:46:20;1.50;;;0.90;;